Time;durP1;ratioP1;P1;durP2;ratioP2;P2;SDS_P1;SDS_P2;PMS_P1;PMS_P2;Temp;Humidity;BMP_temperature;BMP_pressure;BME280_temperature;BME280_humidity;BME280_pressure;Samples;Min_cycle;Max_cycle;Signal;HPM_P1;HPM_P2
2023/04/13 00:01:49;;;;;;;11.30;6.80;;;;;;;11.96;78.25;98126.20;107476;1254;61494;-37
2023/04/13 00:04:18;;;;;;;12.00;6.70;;;;;;;12.02;77.90;98122.52;107382;1254;73488;-37
2023/04/13 00:06:49;;;;;;;13.30;6.70;;;;;;;11.97;77.55;98114.39;107445;1254;69101;-37
2023/04/13 00:09:19;;;;;;;;;;;;;;;11.93;77.75;98122.73;107393;1254;73589;-37
2023/04/13 00:11:48;;;;;;;11.30;7.40;;;;;;;11.86;77.91;98125.88;107440;1254;61485;-37
2023/04/13 00:14:19;;;;;;;11.20;6.70;;;;;;;11.78;78.16;98132.13;107493;1254;61549;-37
2023/04/13 00:17:05;;;;;;;8.40;6.10;;;;;;;11.86;77.89;98136.19;107485;1254;75027;-37
2023/04/13 00:19:35;;;;;;;8.20;6.80;;;;;;;11.88;77.92;98138.36;107448;1254;69213;-37
2023/04/13 00:22:04;;;;;;;9.00;6.50;;;;;;;11.90;77.97;98143.47;107542;1256;72364;-37
2023/04/13 00:24:42;;;;;;;9.60;6.70;;;;;;;11.87;77.61;98146.52;107487;1257;61745;-37
2023/04/13 00:27:13;;;;;;;9.30;6.20;;;;;;;11.80;77.69;98150.20;107509;1254;61530;-37
2023/04/13 00:29:41;;;;;;;9.70;5.90;;;;;;;11.73;77.71;98149.61;107490;1254;75494;-37
2023/04/13 00:32:11;;;;;;;8.60;6.10;;;;;;;11.72;77.65;98152.54;107509;1254;69124;-37
2023/04/13 00:34:44;;;;;;;9.40;6.20;;;;;;;11.66;77.55;98155.59;107483;1254;73878;-37
2023/04/13 00:37:13;;;;;;;9.30;6.60;;;;;;;11.58;78.08;98153.21;107508;1254;60334;-37
2023/04/13 00:39:48;;;;;;;10.50;6.80;;;;;;;11.53;78.38;98153.23;107504;1254;61241;-37
2023/04/13 00:42:17;;;;;;;10.50;5.90;;;;;;;11.49;78.71;98154.83;107482;1254;73518;-37
2023/04/13 00:44:46;;;;;;;12.50;5.70;;;;;;;11.56;78.70;98157.42;107381;1254;69154;-37
2023/04/13 00:47:25;;;;;;;9.00;5.90;;;;;;;11.60;78.57;98159.34;107419;1257;73867;-37
2023/04/13 00:49:55;;;;;;;9.10;6.00;;;;;;;11.61;78.56;98161.44;107417;1254;61374;-37
2023/04/13 00:52:24;;;;;;;11.00;7.20;;;;;;;11.60;78.55;98154.54;107456;1254;61386;-37
2023/04/13 00:54:55;;;;;;;12.70;6.50;;;;;;;11.57;78.35;98154.54;107462;1257;74735;-37
2023/04/13 00:57:24;;;;;;;;;;;;;;;11.50;78.02;98154.19;107513;1259;69120;-37
2023/04/13 00:59:54;;;;;;;9.30;6.10;;;;;;;11.39;78.38;98149.81;107533;1254;72142;-37
2023/04/13 01:02:25;;;;;;;;;;;;;;;11.28;78.92;98148.53;107499;1257;60440;-37
2023/04/13 01:04:56;;;;;;;8.70;6.20;;;;;;;11.21;79.45;98141.28;107487;1254;61287;-37
2023/04/13 01:07:55;;;;;;;9.60;7.00;;;;;;;11.19;79.57;98135.01;107477;1253;71701;-37
2023/04/13 01:10:31;;;;;;;12.40;5.90;;;;;;;11.23;79.51;98138.94;107552;1254;67353;-37
2023/04/13 01:13:09;;;;;;;9.60;5.70;;;;;;;11.35;79.28;98131.14;107506;1254;73871;-37
2023/04/13 01:16:00;;;;;;;9.60;6.00;;;;;;;11.45;79.15;98127.93;107452;1257;61258;-37
2023/04/13 01:18:29;;;;;;;11.30;6.20;;;;;;;11.50;78.90;98130.54;107536;1254;61513;-37
2023/04/13 01:20:59;;;;;;;11.90;6.90;;;;;;;11.54;78.72;98132.14;107400;1254;74895;-37
2023/04/13 01:23:52;;;;;;;7.50;5.40;;;;;;;11.55;78.31;98126.79;107363;1254;69169;-37
2023/04/13 01:26:21;;;;;;;8.70;5.80;;;;;;;11.62;77.96;98118.46;107383;1254;73980;-37
2023/04/13 01:28:50;;;;;;;8.30;5.70;;;;;;;11.67;77.54;98118.59;107403;1254;61587;-37
2023/04/13 01:31:19;;;;;;;8.60;5.80;;;;;;;11.69;77.22;98124.86;107368;1254;61278;-37
2023/04/13 01:33:48;;;;;;;9.20;6.70;;;;;;;11.68;77.12;98131.23;107425;1254;72618;-37
2023/04/13 01:36:18;;;;;;;11.10;6.90;;;;;;;11.66;77.08;98128.53;107319;1254;68194;-37
2023/04/13 01:38:47;;;;;;;11.50;6.30;;;;;;;11.62;76.92;98130.25;107274;1254;74140;-37
2023/04/13 01:41:17;;;;;;;9.80;5.50;;;;;;;11.64;76.59;98131.24;107495;1254;62000;-37
2023/04/13 01:43:46;;;;;;;8.60;5.60;;;;;;;11.61;76.56;98138.31;107471;1254;61224;-37
2023/04/13 01:46:17;;;;;;;9.80;6.50;;;;;;;11.51;76.71;98145.34;107482;1253;74721;-37
2023/04/13 01:49:00;;;;;;;10.20;5.70;;;;;;;11.41;77.01;98150.52;107539;1254;68605;-37
2023/04/13 01:51:56;;;;;;;9.80;6.10;;;;;;;11.32;77.50;98143.72;107459;1254;73567;-37
2023/04/13 01:54:27;;;;;;;10.00;5.90;;;;;;;11.22;77.99;98125.70;107528;1254;62081;-37
2023/04/13 01:56:58;;;;;;;9.90;5.80;;;;;;;11.32;77.99;98129.30;107478;1254;61534;-37
2023/04/13 01:59:28;;;;;;;11.70;6.20;;;;;;;11.40;78.03;98130.20;107526;1253;74753;-37
2023/04/13 02:01:58;;;;;;;10.30;6.20;;;;;;;11.42;77.90;98125.61;107557;1254;68949;-37
2023/04/13 02:04:27;;;;;;;;;;;;;;;11.39;78.02;98106.94;107431;1254;74653;-37
2023/04/13 02:06:55;;;;;;;10.00;6.70;;;;;;;11.41;78.07;98114.85;107464;1254;60384;-37
2023/04/13 02:09:29;;;;;;;9.60;5.10;;;;;;;11.37;77.93;98129.98;107325;1254;61562;-37
2023/04/13 02:11:58;;;;;;;8.00;5.50;;;;;;;11.43;77.61;98132.20;107402;1254;75004;-37
2023/04/13 02:14:32;;;;;;;9.40;5.30;;;;;;;11.43;77.44;98123.27;107504;1254;69100;-37
2023/04/13 02:17:04;;;;;;;7.90;5.60;;;;;;;11.42;77.67;98125.62;107495;1254;73919;-37
2023/04/13 02:19:33;;;;;;;9.30;5.80;;;;;;;11.39;77.63;98131.98;107547;1257;61624;-37
2023/04/13 02:22:07;;;;;;;7.70;6.00;;;;;;;11.37;77.68;98136.96;107519;1254;61449;-37
2023/04/13 02:24:37;;;;;;;8.40;5.10;;;;;;;11.29;77.53;98141.63;107496;1253;74834;-38
2023/04/13 02:27:06;;;;;;;9.80;5.80;;;;;;;11.25;77.49;98145.14;107535;1254;69342;-37
2023/04/13 02:29:35;;;;;;;8.60;5.70;;;;;;;11.21;77.80;98152.05;107542;1254;73561;-37
2023/04/13 02:32:07;;;;;;;7.40;5.60;;;;;;;11.16;78.13;98153.92;107504;1254;60755;-37
2023/04/13 02:34:37;;;;;;;7.90;5.60;;;;;;;11.11;78.30;98156.89;107496;1254;61561;-37
2023/04/13 02:37:08;;;;;;;8.80;5.30;;;;;;;11.07;78.64;98153.41;107502;1254;73924;-37
2023/04/13 02:39:37;;;;;;;10.70;5.90;;;;;;;11.10;78.79;98151.00;107480;1253;70351;-37
2023/04/13 02:42:10;;;;;;;8.80;5.40;;;;;;;11.14;78.63;98149.98;107525;1253;73711;-37
2023/04/13 02:44:39;;;;;;;9.30;5.30;;;;;;;11.15;78.76;98147.58;107534;1254;60454;-37
2023/04/13 02:49:45;;;;;;;9.30;5.40;;;;;;;11.16;78.81;98139.21;104136;1293;601097;-37
2023/04/13 02:52:37;;;;;;;6.40;4.80;;;;;;;11.16;78.64;98136.10;106594;1269;63358;-36
2023/04/13 02:55:08;;;;;;;15.30;6.20;;;;;;;11.19;78.17;98127.48;106623;1267;61528;-37
2023/04/13 02:57:56;;;;;;;9.50;5.60;;;;;;;11.30;78.10;98134.13;106603;1267;73424;-36
2023/04/13 03:00:25;;;;;;;9.40;5.50;;;;;;;11.34;78.04;98140.77;106671;1270;69128;-37
2023/04/13 03:03:17;;;;;;;11.10;6.20;;;;;;;11.37;77.41;98145.95;106661;1268;167320;-37
2023/04/13 03:05:49;;;;;;;8.20;5.40;;;;;;;11.33;77.41;98153.63;106826;1264;61622;-37
2023/04/13 03:08:21;;;;;;;9.40;5.70;;;;;;;11.31;77.37;98148.54;106806;1269;61036;-36
2023/04/13 03:11:08;;;;;;;11.20;5.60;;;;;;;11.36;77.19;98145.40;106813;1265;72236;-37
2023/04/13 03:13:40;;;;;;;7.90;5.60;;;;;;;11.36;77.27;98149.60;106805;1263;67753;-37
2023/04/13 03:16:12;;;;;;;12.10;5.70;;;;;;;11.37;77.33;98157.82;106863;1263;72646;-37
2023/04/13 03:18:47;;;;;;;10.30;6.00;;;;;;;11.31;77.18;98164.20;106801;1269;61282;-36
2023/04/13 03:21:17;;;;;;;11.70;5.30;;;;;;;11.25;77.06;98159.63;106881;1267;61020;-37
2023/04/13 03:23:53;;;;;;;8.10;5.20;;;;;;;11.25;77.16;98156.23;106777;1268;73909;-37
2023/04/13 03:26:23;;;;;;;10.20;5.80;;;;;;;11.26;77.22;98152.11;106707;1269;69156;-38
2023/04/13 03:28:53;;;;;;;7.30;5.60;;;;;;;11.29;77.54;98150.23;106911;1261;72647;-37
2023/04/13 03:31:22;;;;;;;9.80;5.50;;;;;;;11.32;77.42;98163.18;106955;1261;61459;-36
2023/04/13 03:33:52;;;;;;;14.60;6.10;;;;;;;11.30;77.28;98171.64;106971;1266;61207;-38
2023/04/13 03:36:20;;;;;;;8.40;5.20;;;;;;;11.26;77.23;98179.48;107043;1266;73038;-38
2023/04/13 03:38:51;;;;;;;9.70;5.20;;;;;;;11.31;77.39;98183.89;106986;1261;69110;-37
2023/04/13 03:41:21;;;;;;;7.60;5.30;;;;;;;11.40;77.27;98192.07;106851;1261;72797;-37
2023/04/13 03:43:51;;;;;;;;;;;;;;;11.43;77.13;98194.08;107014;1261;62348;-38
2023/04/13 03:46:19;;;;;;;9.20;5.70;;;;;;;11.36;77.14;98196.96;106919;1266;61170;-37
2023/04/13 03:48:48;;;;;;;11.60;5.80;;;;;;;11.31;77.21;98200.55;107056;1260;74412;-37
2023/04/13 03:51:23;;;;;;;12.80;5.50;;;;;;;11.24;77.22;98203.98;107009;1265;69141;-37
2023/04/13 03:53:52;;;;;;;8.00;4.10;;;;;;;11.22;77.39;98204.45;107070;1260;73829;-38
2023/04/13 03:56:23;;;;;;;9.20;6.30;;;;;;;11.21;77.61;98197.64;106996;1260;61619;-37
2023/04/13 03:58:53;;;;;;;11.60;6.00;;;;;;;11.22;77.93;98197.15;107009;1263;61224;-37
2023/04/13 04:01:25;;;;;;;8.00;5.90;;;;;;;11.26;77.97;98196.38;106881;1260;74480;-38
2023/04/13 04:03:56;;;;;;;11.00;5.40;;;;;;;11.29;77.85;98197.30;106886;1261;68883;-37
2023/04/13 04:06:27;;;;;;;8.90;5.10;;;;;;;11.40;77.74;98198.50;106882;1261;73579;-38
2023/04/13 04:09:08;;;;;;;6.60;4.90;;;;;;;11.54;77.38;98195.13;106857;1260;60801;-37
2023/04/13 04:11:41;;;;;;;8.10;5.20;;;;;;;11.59;77.24;98194.71;106880;1260;61488;-38
2023/04/13 04:14:10;;;;;;;10.00;5.50;;;;;;;11.58;77.16;98185.17;106887;1260;74111;-38
2023/04/13 04:16:46;;;;;;;8.80;5.80;;;;;;;11.69;76.83;98197.54;106870;1261;69078;-38
2023/04/13 04:19:17;;;;;;;9.70;4.70;;;;;;;11.70;76.58;98199.17;107002;1263;72670;-36
2023/04/13 04:21:46;;;;;;;9.60;4.90;;;;;;;11.73;76.39;98197.54;107043;1261;63301;-36
2023/04/13 04:24:21;;;;;;;9.90;5.50;;;;;;;11.78;76.25;98195.28;107027;1266;61546;-36
2023/04/13 04:26:54;;;;;;;8.90;5.10;;;;;;;11.82;76.40;98193.40;107020;1265;73967;-37
2023/04/13 04:29:33;;;;;;;10.60;5.70;;;;;;;11.85;76.51;98192.91;107057;1260;68046;-36
2023/04/13 04:32:27;;;;;;;8.90;5.60;;;;;;;11.92;76.34;98190.64;107022;1261;73910;-37
2023/04/13 04:34:56;;;;;;;9.00;5.30;;;;;;;11.95;76.40;98198.99;107054;1261;61772;-37
2023/04/13 04:37:25;;;;;;;10.30;5.80;;;;;;;12.04;75.89;98199.27;107050;1261;61237;-37
2023/04/13 04:40:06;;;;;;;7.90;5.30;;;;;;;12.14;75.84;98204.02;106869;1260;74288;-37
2023/04/13 04:42:36;;;;;;;8.40;5.90;;;;;;;12.20;75.64;98205.98;106901;1266;69205;-36
2023/04/13 04:45:15;;;;;;;11.90;6.50;;;;;;;12.25;75.64;98213.73;106863;1261;72925;-36
2023/04/13 04:47:47;;;;;;;8.20;5.80;;;;;;;12.28;75.37;98215.58;107015;1260;60223;-36
2023/04/13 04:50:25;;;;;;;11.80;5.50;;;;;;;12.31;75.24;98219.13;106795;1260;61258;-37
2023/04/13 04:53:00;;;;;;;8.30;5.30;;;;;;;12.39;74.94;98221.02;106771;1260;73112;-37
2023/04/13 04:55:29;;;;;;;11.40;6.10;;;;;;;12.43;74.53;98222.62;106907;1260;69047;-37
2023/04/13 04:57:58;;;;;;;10.70;5.90;;;;;;;12.42;74.75;98221.85;106816;1260;73778;-36
2023/04/13 05:00:29;;;;;;;12.30;5.90;;;;;;;12.40;74.64;98219.98;106842;1261;61486;-37
2023/04/13 05:03:19;;;;;;;8.80;5.90;;;;;;;12.38;74.50;98218.84;106860;1260;59663;-37
2023/04/13 05:05:52;;;;;;;8.20;5.80;;;;;;;12.36;74.58;98210.02;106832;1261;73955;-37
2023/04/13 05:08:27;;;;;;;11.00;5.60;;;;;;;12.38;74.36;98203.23;106971;1266;69055;-37
2023/04/13 05:10:56;;;;;;;9.00;5.60;;;;;;;12.40;74.49;98206.95;106785;1260;73736;-36
2023/04/13 05:13:24;;;;;;;8.60;5.40;;;;;;;12.40;74.59;98215.49;107011;1266;61267;-37
2023/04/13 05:16:16;;;;;;;8.10;5.40;;;;;;;12.39;74.66;98219.39;107018;1260;61181;-37
2023/04/13 05:18:46;;;;;;;11.60;6.10;;;;;;;12.36;74.73;98222.73;106919;1261;74554;-37
2023/04/13 05:21:28;;;;;;;8.70;5.30;;;;;;;12.33;74.61;98221.45;106804;1261;69131;-37
2023/04/13 05:23:59;;;;;;;8.60;5.40;;;;;;;12.39;74.44;98219.23;106946;1261;73873;-37
2023/04/13 05:26:29;;;;;;;13.50;5.70;;;;;;;12.44;74.34;98211.11;106994;1266;61341;-37
2023/04/13 05:28:58;;;;;;;;;;;;;;;12.46;74.42;98210.09;106912;1260;59519;-38
2023/04/13 05:31:31;;;;;;;8.80;6.10;;;;;;;12.45;74.74;98211.42;106892;1260;74273;-37
2023/04/13 05:34:00;;;;;;;14.50;6.80;;;;;;;12.46;74.89;98220.89;107051;1265;69048;-37
2023/04/13 05:36:30;;;;;;;11.40;5.50;;;;;;;12.55;74.71;98215.69;107003;1260;73856;-37
2023/04/13 05:39:03;;;;;;;11.40;5.80;;;;;;;12.67;73.84;98215.30;106794;1260;62015;-37
2023/04/13 05:41:32;;;;;;;10.90;5.70;;;;;;;12.68;73.37;98215.84;106909;1260;61607;-37
2023/04/13 05:44:04;;;;;;;12.10;6.70;;;;;;;12.67;73.45;98217.94;106880;1261;74213;-37
2023/04/13 05:46:35;;;;;;;12.10;6.30;;;;;;;12.70;73.05;98219.93;106956;1261;69105;-37
2023/04/13 05:49:05;;;;;;;9.30;6.30;;;;;;;12.66;72.92;98218.88;106989;1261;73391;-37
2023/04/13 05:51:34;;;;;;;12.10;6.80;;;;;;;12.65;73.19;98217.17;106954;1261;59996;-37
2023/04/13 05:54:03;;;;;;;9.80;5.90;;;;;;;12.66;73.15;98213.44;107031;1260;61202;-37
2023/04/13 05:56:33;;;;;;;10.60;6.20;;;;;;;12.70;72.97;98213.09;106936;1261;74040;-37
2023/04/13 05:59:03;;;;;;;15.30;6.80;;;;;;;12.71;73.26;98212.00;106881;1261;67725;-37
2023/04/13 06:01:31;;;;;;;14.00;7.00;;;;;;;12.72;73.32;98214.09;106856;1265;71837;-37
2023/04/13 06:04:02;;;;;;;10.60;6.20;;;;;;;12.73;73.29;98218.50;106999;1261;61647;-36
2023/04/13 06:06:32;;;;;;;12.20;6.60;;;;;;;12.75;73.04;98218.19;107022;1260;59625;-37
2023/04/13 06:09:01;;;;;;;14.30;6.10;;;;;;;12.78;73.00;98216.52;106997;1261;74221;-37
2023/04/13 06:11:30;;;;;;;9.40;6.50;;;;;;;12.75;72.69;98205.05;106972;1261;68643;-37
2023/04/13 06:14:01;;;;;;;9.80;6.50;;;;;;;12.91;72.79;98220.91;106897;1261;73840;-37
2023/04/13 06:16:30;;;;;;;9.50;6.40;;;;;;;12.94;72.55;98224.30;106856;1266;61568;-36
2023/04/13 06:19:00;;;;;;;15.10;6.40;;;;;;;12.86;72.22;98224.54;106862;1261;59617;-37
2023/04/13 06:21:35;;;;;;;10.60;6.50;;;;;;;12.83;72.69;98227.52;106841;1260;74306;-37
2023/04/13 06:24:05;;;;;;;;;;;;;;;12.85;72.89;98228.20;106905;1261;69316;-37
2023/04/13 06:26:36;;;;;;;12.00;6.50;;;;;;;12.89;72.65;98232.89;106870;1261;72426;-37
2023/04/13 06:29:07;;;;;;;10.70;5.70;;;;;;;12.90;72.45;98233.13;106998;1260;61667;-37
2023/04/13 06:31:45;;;;;;;10.40;6.00;;;;;;;12.93;72.27;98232.86;106976;1261;61177;-37
2023/04/13 06:34:16;;;;;;;14.30;6.30;;;;;;;12.92;72.47;98237.48;106909;1261;74296;-37
2023/04/13 06:36:45;;;;;;;11.60;5.60;;;;;;;12.95;72.91;98241.56;106898;1265;68935;-37
2023/04/13 06:39:16;;;;;;;10.10;5.50;;;;;;;13.01;72.55;98241.49;106946;1261;73873;-37
2023/04/13 06:41:52;;;;;;;8.80;5.50;;;;;;;13.08;72.58;98243.55;106936;1260;63211;-37
2023/04/13 06:44:41;;;;;;;17.20;5.60;;;;;;;13.22;72.47;98253.47;106970;1261;61232;-37
2023/04/13 06:47:10;;;;;;;9.20;5.30;;;;;;;13.34;72.15;98256.15;106995;1260;73984;-37
2023/04/13 06:49:43;;;;;;;9.30;5.30;;;;;;;13.46;71.61;98253.15;107046;1260;67991;-37
2023/04/13 06:52:12;;;;;;;8.90;5.60;;;;;;;13.56;71.25;98251.96;107030;1260;72668;-37
2023/04/13 06:54:40;;;;;;;15.10;6.40;;;;;;;13.60;71.18;98253.40;107049;1260;61569;-37
2023/04/13 06:57:19;;;;;;;13.80;5.90;;;;;;;13.60;70.89;98249.73;106289;1262;1003067;-37
2023/04/13 06:59:48;;;;;;;15.00;5.60;;;;;;;13.61;70.99;98245.98;107071;1260;74309;-37
2023/04/13 07:02:16;;;;;;;10.70;5.20;;;;;;;13.69;70.73;98249.86;107029;1261;69042;-37
2023/04/13 07:04:45;;;;;;;7.50;4.90;;;;;;;13.77;70.47;98249.08;107039;1260;72634;-37
2023/04/13 07:07:15;;;;;;;10.30;5.40;;;;;;;13.79;70.43;98251.45;106926;1260;61234;-37
2023/04/13 07:09:44;;;;;;;9.80;5.10;;;;;;;13.83;70.21;98253.82;107044;1260;60441;-37
2023/04/13 07:12:13;;;;;;;9.10;5.40;;;;;;;13.86;70.16;98254.73;107022;1260;74744;-37
2023/04/13 07:14:45;;;;;;;10.50;5.50;;;;;;;13.92;70.02;98254.25;107050;1260;68471;-37
2023/04/13 07:17:14;;;;;;;13.50;5.60;;;;;;;13.96;69.96;98257.33;107021;1260;73847;-37
2023/04/13 07:19:48;;;;;;;7.90;5.00;;;;;;;14.02;69.86;98254.22;107012;1260;62774;-37
2023/04/13 07:22:17;;;;;;;14.20;5.50;;;;;;;14.09;69.27;98257.77;107041;1260;60222;-37
2023/04/13 07:24:46;;;;;;;11.50;5.20;;;;;;;14.17;68.76;98265.55;107234;1257;75041;-37
2023/04/13 07:27:18;;;;;;;10.00;4.80;;;;;;;14.19;68.47;98267.86;107346;1257;67639;-37
2023/04/13 07:29:50;;;;;;;11.50;5.70;;;;;;;14.21;67.94;98268.15;107337;1257;72526;-37
2023/04/13 07:32:21;;;;;;;9.60;5.20;;;;;;;14.24;67.63;98276.91;107154;1257;60540;-38
2023/04/13 07:35:00;;;;;;;9.80;4.90;;;;;;;14.28;67.81;98282.61;107277;1257;61193;-37
2023/04/13 07:37:30;;;;;;;10.20;4.90;;;;;;;14.29;67.68;98280.18;107349;1257;75002;-37
2023/04/13 07:40:00;;;;;;;8.60;5.10;;;;;;;14.33;67.64;98276.39;107601;1254;69158;-37
2023/04/13 07:42:31;;;;;;;8.10;5.00;;;;;;;14.38;67.60;98268.17;107572;1253;72322;-37
2023/04/13 07:45:01;;;;;;;9.80;5.40;;;;;;;14.44;67.22;98260.45;107652;1254;62320;-37
2023/04/13 07:47:30;;;;;;;8.60;5.20;;;;;;;14.50;67.02;98260.14;107731;1254;61363;-37
2023/04/13 07:50:05;;;;;;;9.40;5.00;;;;;;;14.51;66.54;98261.20;107702;1252;74660;-37
2023/04/13 07:52:34;;;;;;;11.80;5.20;;;;;;;14.54;66.20;98262.11;107622;1253;67466;-38
2023/04/13 07:55:04;;;;;;;9.80;5.50;;;;;;;14.55;65.80;98263.25;107741;1254;72862;-37
2023/04/13 07:57:38;;;;;;;12.00;5.30;;;;;;;14.58;65.95;98264.31;107598;1253;61302;-37
2023/04/13 08:00:09;;;;;;;14.20;5.50;;;;;;;14.60;65.75;98269.19;107660;1254;61893;-38
2023/04/13 08:02:44;;;;;;;16.30;6.00;;;;;;;14.60;65.67;98273.09;107546;1254;74900;-37
2023/04/13 08:05:20;;;;;;;8.40;5.60;;;;;;;14.59;65.23;98285.24;107620;1253;69152;-37
2023/04/13 08:07:50;;;;;;;12.10;5.50;;;;;;;14.52;64.90;98290.41;107722;1254;72620;-38
2023/04/13 08:10:19;;;;;;;9.10;5.80;;;;;;;14.49;64.55;98292.87;107688;1254;61369;-37
2023/04/13 08:12:48;;;;;;;12.50;4.90;;;;;;;14.48;64.92;98297.96;107645;1254;60942;-37
2023/04/13 08:15:18;;;;;;;10.00;4.90;;;;;;;14.54;65.05;98294.13;107571;1253;74916;-37
2023/04/13 08:17:48;;;;;;;12.60;5.50;;;;;;;14.61;65.14;98289.04;107748;1254;67992;-38
2023/04/13 08:20:19;;;;;;;11.90;5.30;;;;;;;14.63;65.00;98283.63;107688;1254;73549;-38
2023/04/13 08:22:54;;;;;;;9.10;5.00;;;;;;;14.70;65.42;98287.42;107672;1253;61381;-36
2023/04/13 08:25:22;;;;;;;10.60;5.40;;;;;;;14.79;65.53;98283.80;107686;1254;60579;-37
2023/04/13 08:27:51;;;;;;;9.80;5.70;;;;;;;14.87;65.79;98288.48;107639;1253;75009;-37
2023/04/13 08:30:21;;;;;;;11.30;6.40;;;;;;;14.91;64.97;98290.85;107600;1254;69482;-37
2023/04/13 08:32:56;;;;;;;9.20;5.40;;;;;;;14.87;64.83;98294.73;107679;1254;73648;-37
2023/04/13 08:35:27;;;;;;;10.20;5.60;;;;;;;14.87;64.71;98287.48;107741;1253;60530;-37
2023/04/13 08:38:01;;;;;;;11.80;5.50;;;;;;;14.90;64.75;98292.81;107570;1252;61565;-38
2023/04/13 08:40:37;;;;;;;10.00;4.90;;;;;;;14.99;64.51;98290.88;107501;1256;72840;-38
2023/04/13 08:43:06;;;;;;;9.10;5.10;;;;;;;15.07;64.30;98292.31;107588;1253;66792;-36
2023/04/13 08:45:41;;;;;;;12.40;5.70;;;;;;;15.13;64.45;98295.55;107620;1254;73856;-36
2023/04/13 08:48:11;;;;;;;9.10;5.20;;;;;;;15.15;63.63;98297.54;107607;1253;61401;-37
2023/04/13 08:50:40;;;;;;;9.50;5.60;;;;;;;15.12;63.60;98299.16;107681;1252;61270;-37
2023/04/13 08:53:09;;;;;;;7.40;4.90;;;;;;;15.10;63.67;98296.52;107535;1252;75010;-37
2023/04/13 08:55:43;;;;;;;11.80;5.70;;;;;;;15.04;63.41;98296.11;107619;1254;69080;-37
2023/04/13 08:58:12;;;;;;;11.20;5.50;;;;;;;14.94;63.63;98294.63;107653;1254;73808;-37
2023/04/13 09:00:44;;;;;;;12.10;6.00;;;;;;;14.87;63.69;98294.10;107600;1253;61578;-37
2023/04/13 09:03:14;;;;;;;13.40;5.70;;;;;;;14.83;63.92;98292.20;107745;1255;60399;-37
2023/04/13 09:05:46;;;;;;;12.50;5.70;;;;;;;14.79;64.32;98296.17;107587;1254;73833;-37
2023/04/13 09:08:21;;;;;;;10.10;5.30;;;;;;;14.78;64.60;98298.84;107525;1254;68933;-37
2023/04/13 09:10:53;;;;;;;9.90;5.30;;;;;;;14.78;64.68;98303.20;107622;1254;71905;-37
2023/04/13 09:13:23;;;;;;;12.80;6.20;;;;;;;14.74;64.20;98301.16;107653;1253;61223;-37
2023/04/13 09:15:54;;;;;;;10.20;5.20;;;;;;;14.62;64.20;98302.90;107729;1252;61186;-36
2023/04/13 09:18:50;;;;;;;15.20;6.00;;;;;;;14.55;64.65;98303.86;107691;1252;74553;-37
2023/04/13 09:21:19;;;;;;;12.80;6.00;;;;;;;14.51;64.59;98304.46;107691;1254;67941;-37
2023/04/13 09:23:57;;;;;;;10.00;5.50;;;;;;;14.48;64.39;98303.55;107720;1253;73709;-37
2023/04/13 09:26:26;;;;;;;11.30;5.70;;;;;;;14.40;64.65;98305.93;107696;1254;61470;-37
2023/04/13 09:28:57;;;;;;;9.40;5.40;;;;;;;14.38;65.28;98307.42;107747;1253;61377;-37
2023/04/13 09:31:26;;;;;;;12.20;4.90;;;;;;;14.43;65.53;98309.31;107695;1253;75085;-37
2023/04/13 09:33:56;;;;;;;11.70;5.30;;;;;;;14.51;64.87;98310.55;107740;1253;69104;-37
2023/04/13 09:36:25;;;;;;;7.70;5.60;;;;;;;14.52;64.71;98314.80;107628;1253;73686;-37
2023/04/13 09:38:54;;;;;;;11.50;5.50;;;;;;;14.49;64.60;98311.48;107696;1252;60501;-37
2023/04/13 09:41:37;;;;;;;9.50;5.50;;;;;;;14.48;64.65;98313.84;107587;1253;60315;-37
2023/04/13 09:44:16;;;;;;;11.10;5.20;;;;;;;14.53;64.73;98311.52;107542;1255;74501;-38
2023/04/13 09:47:01;;;;;;;9.50;5.70;;;;;;;14.56;64.97;98306.73;107685;1254;67500;-37
2023/04/13 09:49:37;;;;;;;10.10;5.80;;;;;;;14.61;65.11;98305.95;107623;1253;72457;-38
2023/04/13 09:52:21;;;;;;;10.80;5.70;;;;;;;14.64;64.78;98312.31;107648;1252;61518;-37
2023/04/13 09:54:53;;;;;;;10.70;5.30;;;;;;;14.63;64.86;98317.21;107686;1256;61500;-37
2023/04/13 09:57:31;;;;;;;12.80;5.70;;;;;;;14.63;64.87;98320.81;107573;1256;75033;-37
2023/04/13 10:00:06;;;;;;;8.80;4.60;;;;;;;14.63;64.70;98322.29;107717;1254;67686;-37
2023/04/13 10:02:41;;;;;;;10.00;5.10;;;;;;;14.70;64.19;98320.70;107681;1254;72674;-37
2023/04/13 10:05:11;;;;;;;10.00;5.10;;;;;;;14.71;64.39;98322.95;107684;1257;61560;-37
2023/04/13 10:07:43;;;;;;;11.20;5.10;;;;;;;14.74;64.79;98321.27;107687;1254;61585;-37
2023/04/13 10:10:14;;;;;;;10.20;5.60;;;;;;;14.79;64.36;98323.92;107706;1252;74690;-37
2023/04/13 10:12:47;;;;;;;8.80;5.40;;;;;;;14.85;64.41;98321.20;107720;1254;69054;-37
2023/04/13 10:15:53;;;;;;;8.10;5.20;;;;;;;14.92;63.73;98314.15;107724;1253;73617;-37
2023/04/13 10:18:37;;;;;;;11.00;5.50;;;;;;;14.91;63.38;98314.00;107583;1254;61015;-37
2023/04/13 10:21:06;;;;;;;10.00;5.50;;;;;;;14.91;64.33;98317.59;107706;1252;60616;-37
2023/04/13 10:23:35;;;;;;;9.40;5.00;;;;;;;14.87;63.99;98321.01;107707;1253;74110;-37
2023/04/13 10:26:05;;;;;;;9.90;5.10;;;;;;;14.86;64.18;98316.73;107681;1254;68198;-38
2023/04/13 10:28:43;;;;;;;9.20;4.80;;;;;;;14.86;64.32;98309.17;107698;1252;72567;-38
2023/04/13 10:31:15;;;;;;;8.80;5.00;;;;;;;14.89;64.39;98318.10;107657;1256;61278;-39
2023/04/13 10:33:50;;;;;;;7.90;4.90;;;;;;;14.88;64.84;98321.69;107671;1254;61509;-37
2023/04/13 10:36:19;;;;;;;14.10;5.80;;;;;;;14.87;64.68;98321.71;107708;1252;74323;-37
2023/04/13 10:38:47;;;;;;;7.10;5.10;;;;;;;14.80;64.43;98323.23;107623;1254;69124;-37
2023/04/13 10:41:23;;;;;;;9.30;5.20;;;;;;;14.71;64.48;98327.41;107529;1254;73911;-37
2023/04/13 10:44:03;;;;;;;8.10;5.50;;;;;;;14.64;65.28;98331.16;107560;1252;60270;-37
2023/04/13 10:46:35;;;;;;;;;;;;;;;14.64;65.37;98333.89;107519;1253;61334;-38
2023/04/13 10:49:04;;;;;;;8.50;4.70;;;;;;;14.66;65.58;98334.02;107538;1256;75049;-37
2023/04/13 10:51:39;;;;;;;10.30;5.30;;;;;;;14.72;65.78;98338.46;107592;1256;68841;-37
2023/04/13 10:54:08;;;;;;;14.50;6.30;;;;;;;14.80;65.78;98338.89;107683;1254;73886;-37
2023/04/13 10:56:37;;;;;;;12.30;5.70;;;;;;;14.83;65.59;98338.53;107685;1256;60411;-37
2023/04/13 10:59:06;;;;;;;7.20;4.80;;;;;;;14.82;65.25;98338.39;107655;1253;61416;-37
2023/04/13 11:01:35;;;;;;;5.90;4.20;;;;;;;14.83;65.53;98341.81;107665;1253;75030;-37
2023/04/13 11:04:04;;;;;;;15.20;6.10;;;;;;;14.81;65.14;98345.58;107682;1254;69153;-37
2023/04/13 11:06:42;;;;;;;12.30;5.80;;;;;;;14.76;65.22;98343.61;107664;1254;73505;-36
2023/04/13 11:09:11;;;;;;;9.20;5.60;;;;;;;14.71;65.38;98349.15;107653;1253;61589;-37
2023/04/13 11:11:50;;;;;;;9.50;6.00;;;;;;;14.68;65.35;98352.84;107696;1254;61527;-37
2023/04/13 11:14:24;;;;;;;12.30;5.90;;;;;;;14.71;65.17;98354.75;107696;1252;73581;-38
2023/04/13 11:16:55;;;;;;;;;;;;;;;14.71;65.03;98356.09;107696;1253;68849;-37
2023/04/13 11:19:25;;;;;;;14.10;7.20;;;;;;;14.63;65.34;98360.02;107739;1254;73580;-37
2023/04/13 11:21:58;;;;;;;16.20;6.60;;;;;;;14.54;65.51;98357.48;107582;1254;61226;-38
2023/04/13 11:24:32;;;;;;;13.60;6.50;;;;;;;14.51;65.50;98355.82;107683;1254;60426;-38
2023/04/13 11:27:01;;;;;;;10.50;6.30;;;;;;;14.49;65.73;98360.27;107691;1254;74870;-37
2023/04/13 11:29:29;;;;;;;12.10;6.50;;;;;;;14.45;65.28;98357.68;107531;1254;69197;-37
2023/04/13 11:31:58;;;;;;;12.10;6.30;;;;;;;14.39;64.97;98360.79;107640;1253;73700;-37
2023/04/13 11:34:27;;;;;;;12.00;6.20;;;;;;;14.31;64.72;98358.21;107708;1253;60424;-38
2023/04/13 11:37:04;;;;;;;14.50;6.90;;;;;;;14.25;64.78;98353.39;107555;1254;61492;-37
2023/04/13 11:39:33;;;;;;;10.80;5.20;;;;;;;14.20;64.84;98356.63;107563;1252;73772;-38
2023/04/13 11:42:04;;;;;;;11.80;5.00;;;;;;;14.21;64.62;98357.40;107619;1253;67290;-37
2023/04/13 11:44:34;;;;;;;13.50;5.60;;;;;;;14.22;65.00;98360.58;107653;1252;73762;-37
2023/04/13 11:47:02;;;;;;;;;;;;;;;14.25;64.88;98361.09;107616;1254;60332;-37
2023/04/13 11:49:40;;;;;;;15.60;6.10;;;;;;;14.20;64.77;98366.60;107701;1254;61202;-38
2023/04/13 11:52:09;;;;;;;12.50;6.30;;;;;;;14.14;64.74;98363.23;107604;1254;73942;-38